OPRK

Shaikh Zaid Airport

Rahim Yar Khan, Pakistan
TAF OPRK 261008Z 2612/2706 23010KT 4000 HZ FEW120 TN24/2701Z
Issued Valid From Valid To
Apr-26 @ 10:08 UTC
(3 hours ago)
Apr-26 @ 12:00 UTC
(an hour ago)
Apr-27 @ 06:00 UTC
(in 17 hours)
Apr-26 @ 12:00 to Apr-27 @ 06:00
TAF OPRK 261008Z 2612/2706 23010KT 4000 HZ FEW120 TN24/2701Z
Wind Visibility Clouds Conditions
230° at 10 knots 4,007 meters
  • Few at 12,000' AGL
  • Haze
TAF OPRK 261008Z 2612/2706 23010KT 4000 HZ FEW120 TN24/2701Z
Issued Apr-26 @ 10:08 UTC
(3 hours ago)
Valid From Apr-26 @ 12:00 UTC
(an hour ago)
Valid To Apr-27 @ 06:00 UTC
(in 17 hours)
Apr-26 @ 12:00 - Apr-27 @ 06:00
Wind Visibility
230° at 10 knots 4,007 meters
Clouds
  • Few at 12,000' AGL
Conditions
  • Haze